createdAt,value
2018-04-29T00:02:33.084Z,"    0"
2018-04-29T00:07:27.896Z,"    0"
2018-04-29T00:12:25.018Z,"    0"
2018-04-29T00:17:21.582Z,"    0"
2018-04-29T00:22:16.905Z,"    0"
2018-04-29T00:27:12.708Z,"    0"
2018-04-29T00:32:09.397Z,"    0"
2018-04-29T00:37:04.722Z,"    0"
2018-04-29T00:42:01.140Z,"    0"
2018-04-29T00:47:00.596Z,"    0"
2018-04-29T00:51:56.012Z,"    0"
2018-04-29T00:56:52.330Z,"    0"
2018-04-29T01:01:48.396Z,"    0"
2018-04-29T01:06:47.819Z,"    0"
2018-04-29T01:11:46.554Z,"    0"
2018-04-29T01:16:45.561Z,"    0"
2018-04-29T01:21:44.169Z,"    0"
2018-04-29T01:26:43.536Z,"    0"
2018-04-29T01:31:43.251Z,"    0"
2018-04-29T01:36:37.990Z,"    0"
2018-04-29T01:41:34.749Z,"    0"
2018-04-29T01:46:31.023Z,"    0"
2018-04-29T01:51:26.795Z,"    0"
2018-04-29T01:56:22.596Z,"    0"
2018-04-29T02:01:18.349Z,"    0"
2018-04-29T02:06:15.297Z,"    0"
2018-04-29T02:11:11.725Z,"    0"
2018-04-29T02:16:10.999Z,"    0"
2018-04-29T02:21:07.209Z,"    0"
2018-04-29T02:26:02.478Z,"    0"
2018-04-29T02:30:58.263Z,"    0"
2018-04-29T02:35:58.868Z,"    0"
2018-04-29T02:40:53.597Z,"    0"
2018-04-29T02:45:49.495Z,"    0"
2018-04-29T02:50:45.240Z,"    0"
2018-04-29T02:55:40.951Z,"    0"
2018-04-29T03:00:40.153Z,"    0"
2018-04-29T03:05:36.090Z,"    0"
2018-04-29T03:10:31.469Z,"    0"
2018-04-29T03:15:28.174Z,"    0"
2018-04-29T03:20:24.004Z,"    0"
2018-04-29T03:25:20.371Z,"    0"
2018-04-29T03:30:16.291Z,"    4"
2018-04-29T03:35:15.566Z,"    4"
2018-04-29T03:40:10.355Z,"    8"
2018-04-29T03:45:10.153Z,"   16"
2018-04-29T03:50:08.984Z,"   36"
2018-04-29T03:55:03.781Z,"   60"
2018-04-29T03:59:59.766Z,"  100"
2018-04-29T04:04:56.515Z,"  164"
2018-04-29T04:09:52.001Z,"  252"
2018-04-29T04:14:48.534Z,"  384"
2018-04-29T04:19:44.139Z,"  576"
2018-04-29T04:24:40.049Z,"  776"
2018-04-29T04:29:40.221Z,"  912"
2018-04-29T04:34:36.773Z," 1176"
2018-04-29T04:39:32.566Z," 1616"
2018-04-29T04:44:32.385Z," 1856"
2018-04-29T04:49:28.542Z," 1816"
2018-04-29T04:54:24.034Z," 1544"
2018-04-29T04:59:20.740Z," 1496"
2018-04-29T05:04:20.210Z," 1504"
2018-04-29T05:09:20.333Z," 1588"
2018-04-29T05:14:16.113Z," 1724"
2018-04-29T05:19:11.731Z," 1756"
2018-04-29T05:24:07.658Z," 1772"
2018-04-29T05:29:03.585Z," 2208"
2018-04-29T05:34:00.543Z," 3052"
2018-04-29T05:38:56.587Z," 4068"
2018-04-29T05:43:52.652Z," 4420"
2018-04-29T05:48:49.627Z," 3996"
2018-04-29T05:53:45.537Z," 5124"
2018-04-29T05:58:42.076Z," 5168"
2018-04-29T06:03:39.706Z," 6716"
2018-04-29T06:08:39.933Z," 7232"
2018-04-29T06:13:36.306Z," 6780"
2018-04-29T06:18:31.986Z," 5664"
2018-04-29T06:23:28.292Z," 5132"
2018-04-29T06:28:24.276Z," 6804"
2018-04-29T06:33:20.320Z," 8164"
2018-04-29T06:38:16.387Z," 6464"
2018-04-29T06:43:13.254Z," 7208"
2018-04-29T06:48:08.887Z," 6376"
2018-04-29T06:53:05.097Z," 4676"
2018-04-29T06:58:00.790Z," 8272"
2018-04-29T07:02:56.842Z," 8360"
2018-04-29T07:07:53.765Z," 8212"
2018-04-29T07:12:49.601Z," 4752"
2018-04-29T07:17:50.223Z," 5184"
2018-04-29T07:22:45.199Z," 6428"
2018-04-29T07:27:42.191Z," 9344"
2018-04-29T07:32:38.483Z,12236
2018-04-29T07:37:34.565Z," 8596"
2018-04-29T07:42:30.661Z," 8812"
2018-04-29T07:47:26.645Z," 9992"
2018-04-29T07:52:22.448Z," 4028"
2018-04-29T07:57:22.507Z," 5532"
2018-04-29T08:02:17.216Z," 6488"
2018-04-29T08:07:13.373Z," 6596"
2018-04-29T08:12:09.330Z," 6536"
2018-04-29T08:17:04.733Z," 4060"
2018-04-29T08:22:00.417Z," 3328"
2018-04-29T08:26:56.163Z," 3168"
2018-04-29T08:31:51.848Z," 3280"
2018-04-29T08:36:47.717Z," 4792"
2018-04-29T08:41:47.480Z," 5768"
2018-04-29T08:46:42.887Z," 4140"
2018-04-29T08:51:38.617Z," 4844"
2018-04-29T08:56:38.069Z,14356
2018-04-29T09:01:39.424Z,10832
2018-04-29T09:06:34.810Z," 6368"
2018-04-29T09:11:30.698Z," 7992"
2018-04-29T09:16:27.251Z," 5788"
2018-04-29T09:21:24.515Z," 5852"
2018-04-29T09:26:19.915Z," 7140"
2018-04-29T09:31:15.913Z," 6392"
2018-04-29T09:36:12.391Z," 7236"
2018-04-29T09:41:08.245Z," 6960"
2018-04-29T09:46:05.386Z," 4332"
2018-04-29T09:51:00.764Z," 3548"
2018-04-29T09:55:57.368Z," 1576"
2018-04-29T10:00:56.657Z," 3004"
2018-04-29T10:05:52.348Z," 5668"
2018-04-29T10:10:48.450Z," 7992"
2018-04-29T10:15:44.590Z,13656
2018-04-29T10:20:45.365Z," 7204"
2018-04-29T10:25:45.036Z," 9644"
2018-04-29T10:30:41.634Z,13608
2018-04-29T10:35:41.718Z,13728
2018-04-29T10:40:37.169Z,22752
2018-04-29T10:45:34.873Z,62976
2018-04-29T10:50:33.230Z,72128
2018-04-29T10:55:34.187Z,17792
2018-04-29T11:00:27.551Z,20576
2018-04-29T11:05:23.647Z,30816
2018-04-29T11:10:21.763Z,41984
2018-04-29T11:15:19.020Z,78944
2018-04-29T11:20:16.010Z,39712
2018-04-29T11:25:11.451Z,18112
2018-04-29T11:30:07.956Z,84960
2018-04-29T11:35:05.177Z,47712
2018-04-29T11:40:02.097Z,36160
2018-04-29T11:45:00.531Z,20704
2018-04-29T11:49:55.547Z,18784
2018-04-29T11:54:51.931Z,23360
2018-04-29T11:59:51.369Z,18912
2018-04-29T12:04:46.653Z,47872
2018-04-29T12:09:45.342Z,46656
2018-04-29T12:14:40.738Z,20896
2018-04-29T12:19:35.856Z,14780
2018-04-29T12:24:34.709Z,23552
2018-04-29T12:29:30.495Z,12464
2018-04-29T12:34:26.277Z,10496
2018-04-29T12:39:26.578Z,19936
2018-04-29T12:44:21.637Z,17632
2018-04-29T12:49:17.615Z,11444
2018-04-29T12:54:13.557Z,11192
2018-04-29T12:59:14.061Z,13992
2018-04-29T13:04:09.257Z,15480
2018-04-29T13:09:06.479Z,34144
2018-04-29T13:14:02.391Z,21152
2018-04-29T13:18:58.174Z,18656
2018-04-29T13:23:53.775Z,12816
2018-04-29T13:28:54.055Z,14080
2018-04-29T13:33:52.836Z," 8120"
2018-04-29T13:38:47.551Z," 8616"
2018-04-29T13:43:47.138Z,10728
2018-04-29T13:48:42.425Z,11928
2018-04-29T13:53:38.344Z," 9552"
2018-04-29T13:58:38.046Z," 6320"
2018-04-29T14:03:33.777Z," 6116"
2018-04-29T14:08:28.894Z," 5064"
2018-04-29T14:13:24.779Z," 5264"
2018-04-29T14:18:20.632Z," 8188"
2018-04-29T14:23:16.636Z," 9804"
2018-04-29T14:28:12.875Z," 7340"
2018-04-29T14:33:10.017Z," 7336"
2018-04-29T14:38:05.958Z," 6100"
2018-04-29T14:43:01.505Z," 6552"
2018-04-29T14:47:57.404Z," 6884"
2018-04-29T14:52:53.356Z," 8556"
2018-04-29T14:57:49.309Z," 7648"
2018-04-29T15:02:45.486Z," 6828"
2018-04-29T15:07:41.431Z," 6388"
2018-04-29T15:12:37.153Z," 5996"
2018-04-29T15:17:36.973Z," 5368"
2018-04-29T15:22:32.104Z," 6740"
2018-04-29T15:27:29.019Z," 4148"
2018-04-29T15:32:24.445Z," 5016"
2018-04-29T15:37:23.992Z," 4428"
2018-04-29T15:42:19.155Z," 4444"
2018-04-29T15:47:14.978Z," 4996"
2018-04-29T15:52:14.929Z," 4996"
2018-04-29T15:57:09.996Z," 4676"
2018-04-29T16:02:09.788Z," 4192"
2018-04-29T16:07:05.756Z," 2852"
2018-04-29T16:12:02.690Z," 2596"
2018-04-29T16:16:59.486Z," 2296"
2018-04-29T16:21:58.614Z," 2540"
2018-04-29T16:26:53.632Z," 2548"
2018-04-29T16:31:53.789Z," 2332"
2018-04-29T16:36:53.329Z," 2084"
2018-04-29T16:41:48.402Z," 2084"
2018-04-29T16:46:47.947Z," 1720"
2018-04-29T16:51:46.917Z," 1676"
2018-04-29T16:56:42.123Z," 1780"
2018-04-29T17:01:38.030Z," 1928"
2018-04-29T17:06:37.770Z," 2944"
2018-04-29T17:11:36.865Z," 3032"
2018-04-29T17:16:31.863Z," 2784"
2018-04-29T17:21:31.378Z," 2396"
2018-04-29T17:26:26.917Z," 2060"
2018-04-29T17:31:23.651Z," 2108"
2018-04-29T17:36:22.938Z," 2200"
2018-04-29T17:41:18.238Z," 2136"
2018-04-29T17:46:16.081Z," 2204"
2018-04-29T17:51:11.547Z," 1960"
2018-04-29T17:56:07.410Z," 1620"
2018-04-29T18:01:04.238Z," 1336"
2018-04-29T18:06:03.611Z," 1012"
2018-04-29T18:10:59.585Z,"  836"
2018-04-29T18:15:54.934Z,"  700"
2018-04-29T18:20:50.535Z,"  608"
2018-04-29T18:25:46.349Z,"  520"
2018-04-29T18:30:42.449Z,"  416"
2018-04-29T18:35:38.418Z,"  316"
2018-04-29T18:40:35.227Z,"  216"
2018-04-29T18:45:34.848Z,"  140"
2018-04-29T18:50:34.081Z,"   88"
2018-04-29T18:55:32.676Z,"   52"
2018-04-29T19:00:31.557Z,"   32"
2018-04-29T19:05:26.473Z,"   16"
2018-04-29T19:10:27.177Z,"    8"
2018-04-29T19:15:26.032Z,"    4"
2018-04-29T19:20:21.284Z,"    4"
2018-04-29T19:25:22.015Z,"    0"
2018-04-29T19:30:17.544Z,"    0"
2018-04-29T19:35:14.459Z,"    0"
2018-04-29T19:40:10.372Z,"    0"
2018-04-29T19:45:11.099Z,"    0"
2018-04-29T19:50:09.541Z,"    0"
2018-04-29T19:55:08.528Z,"    0"
2018-04-29T20:00:04.425Z,"    0"
2018-04-29T20:05:03.452Z,"    0"
2018-04-29T20:10:02.308Z,"    0"
2018-04-29T20:15:02.038Z,"    0"
2018-04-29T20:19:57.912Z,"    0"
2018-04-29T20:24:54.378Z,"    0"
2018-04-29T20:29:54.835Z,"    0"
2018-04-29T20:34:53.427Z,"    0"
2018-04-29T20:39:52.389Z,"    0"
2018-04-29T20:44:51.356Z,"    0"
2018-04-29T20:49:46.184Z,"    0"
2018-04-29T20:54:45.804Z,"    0"
2018-04-29T20:59:45.010Z,"    0"
2018-04-29T21:04:40.032Z,"    0"
2018-04-29T21:09:35.627Z,"    0"
2018-04-29T21:14:33.229Z,"    0"
2018-04-29T21:19:28.857Z,"    0"
2018-04-29T21:24:28.463Z,"    0"
2018-04-29T21:29:23.688Z,"    0"
2018-04-29T21:34:24.745Z,"    0"
2018-04-29T21:39:23.467Z,"    0"
2018-04-29T21:44:22.249Z,"    0"
2018-04-29T21:49:20.975Z,"    0"
2018-04-29T21:54:15.991Z,"    0"
2018-04-29T21:59:15.647Z,"    0"
2018-04-29T22:04:11.706Z,"    0"
2018-04-29T22:09:07.361Z,"    0"
2018-04-29T22:14:03.182Z,"    0"
2018-04-29T22:18:59.846Z,"    0"
2018-04-29T22:23:57.208Z,"    0"
2018-04-29T22:28:53.393Z,"    0"
2018-04-29T22:33:48.686Z,"    0"
2018-04-29T22:38:44.686Z,"    0"
2018-04-29T22:43:40.525Z,"    0"
2018-04-29T22:48:36.167Z,"    0"
2018-04-29T22:53:35.732Z,"    0"
2018-04-29T22:58:30.723Z,"    0"
2018-04-29T23:03:30.114Z,"    0"
2018-04-29T23:08:26.277Z,"    0"
2018-04-29T23:13:26.203Z,"    0"
2018-04-29T23:18:21.122Z,"    0"
2018-04-29T23:23:17.804Z,"    0"
2018-04-29T23:28:13.631Z,"    0"
2018-04-29T23:33:09.487Z,"    0"
2018-04-29T23:38:04.806Z,"    0"
2018-04-29T23:43:04.740Z,"    0"
2018-04-29T23:48:03.984Z,"    0"
2018-04-29T23:53:00.129Z,"    0"
2018-04-29T23:57:56.110Z,"    0"
